Time;durP1;ratioP1;P1;durP2;ratioP2;P2;SDS_P1;SDS_P2;PMS_P1;PMS_P2;Temp;Humidity;BMP_temperature;BMP_pressure;BME280_temperature;BME280_humidity;BME280_pressure;Samples;Min_cycle;Max_cycle;Signal;HPM_P1;HPM_P2
2023/07/17 00:04:31;;;;;;;;;1.33;1.33;;;;;;;;5053215;28;28338;-93
2023/07/17 00:07:36;;;;;;;;;;;;;;;;;;;;;
2023/07/17 00:10:14;;;;;;;;;1.33;1.33;;;;;;;;5063532;28;28744;-92
2023/07/17 00:13:10;;;;;;;;;1.00;1.00;;;;;;;;5070350;28;28671;-92
2023/07/17 00:15:59;;;;;;;;;;;;;;;;;;;;;
2023/07/17 00:18:56;;;;;;;;;0.67;0.67;;;;;;;;5067631;28;57794;-93
2023/07/17 00:21:27;;;;;;;;;1.00;1.00;;;;;;;;5049937;28;28695;-92
2023/07/17 00:23:58;;;;;;;;;1.00;1.00;;;;;;;;5051300;28;28442;-92
2023/07/17 00:26:34;;;;;;;;;1.00;1.00;;;;;;;;5071009;28;29547;-92
2023/07/17 00:29:28;;;;;;;;;0.00;0.00;;;;;;;;5047448;28;29678;-92
2023/07/17 00:31:59;;;;;;;;;0.67;0.67;;;;;;;;5051590;28;28664;-93
2023/07/17 00:34:51;;;;;;;;;0.67;0.67;;;;;;;;5052820;28;28552;-92
2023/07/17 00:37:21;;;;;;;;;1.00;1.00;;;;;;;;5068071;28;28319;-92
2023/07/17 00:39:56;;;;;;;;;;;;;;;;;;;;;
2023/07/17 00:42:24;;;;;;;;;0.33;0.33;;;;;;;;5068329;28;55846;-93
2023/07/17 00:44:51;;;;;;;;;1.67;1.67;;;;;;;;5069243;28;28524;-92
2023/07/17 00:47:20;;;;;;;;;1.00;1.00;;;;;;;;5065962;28;28541;-93
2023/07/17 00:49:50;;;;;;;;;0.00;0.00;;;;;;;;5068419;28;28567;-93
2023/07/17 00:52:17;;;;;;;;;1.00;1.00;;;;;;;;5050057;28;28857;-93
2023/07/17 00:57:53;;;;;;;;;0.67;0.67;;;;;;;;5065633;28;28486;-92
2023/07/17 01:00:41;;;;;;;;;0.67;0.67;;;;;;;;5049906;28;30236;-92
2023/07/17 01:03:19;;;;;;;;;1.67;1.67;;;;;;;;5046089;28;28832;-92
2023/07/17 01:05:50;;;;;;;;;1.00;1.00;;;;;;;;5053013;28;28455;-93
2023/07/17 01:08:18;;;;;;;;;1.00;1.00;;;;;;;;5043644;28;28584;-93
2023/07/17 01:10:59;;;;;;;;;1.00;1.00;;;;;;;;5046810;28;30802;-93
2023/07/17 01:13:36;;;;;;;;;1.00;1.00;;;;;;;;5048436;28;28545;-92
2023/07/17 01:16:08;;;;;;;;;2.00;2.00;;;;;;;;5045869;28;28405;-92
2023/07/17 01:18:39;;;;;;;;;3.00;3.00;;;;;;;;5048090;28;29734;-92
2023/07/17 01:21:18;;;;;;;;;;;;;;;;;;;;;
2023/07/17 01:23:56;;;;;;;;;;;;;;;;;;;;;
2023/07/17 01:26:32;;;;;;;;;1.67;1.33;;;;;;;;5045082;28;53230;-92
2023/07/17 01:29:06;;;;;;;;;1.00;1.00;;;;;;;;5050982;28;28461;-92
2023/07/17 01:31:42;;;;;;;;;0.67;0.67;;;;;;;;5046015;28;28540;-93
2023/07/17 01:34:16;;;;;;;;;2.00;2.00;;;;;;;;5045562;28;28606;-92
2023/07/17 01:36:46;;;;;;;;;1.67;1.67;;;;;;;;5049108;28;28318;-93
2023/07/17 01:39:19;;;;;;;;;2.00;1.00;;;;;;;;5063076;28;28555;-93
2023/07/17 01:41:47;;;;;;;;;1.00;1.00;;;;;;;;5043612;28;28641;-92
2023/07/17 01:44:21;;;;;;;;;1.67;1.67;;;;;;;;5045614;28;29758;-92
2023/07/17 01:47:17;;;;;;;;;0.67;0.67;;;;;;;;5046622;28;28578;-93
2023/07/17 01:49:52;;;;;;;;;1.67;1.67;;;;;;;;5044700;28;29484;-92
2023/07/17 01:52:25;;;;;;;;;1.67;1.67;;;;;;;;5046606;28;30792;-92
2023/07/17 01:54:51;;;;;;;;;1.33;1.33;;;;;;;;5047864;28;28640;-92
2023/07/17 01:57:16;;;;;;;;;2.33;1.00;;;;;;;;5047715;28;28242;-92
2023/07/17 01:59:41;;;;;;;;;2.33;1.33;;;;;;;;5042775;28;28615;-92
2023/07/17 02:02:07;;;;;;;;;2.00;2.00;;;;;;;;5049628;28;28522;-93
2023/07/17 02:04:34;;;;;;;;;2.00;2.00;;;;;;;;5044933;28;29659;-92
2023/07/17 02:07:17;;;;;;;;;2.33;2.33;;;;;;;;5046946;28;28534;-92
2023/07/17 02:09:54;;;;;;;;;5.00;3.33;;;;;;;;5048856;28;28616;-92
2023/07/17 02:12:19;;;;;;;;;2.33;2.33;;;;;;;;5045703;28;28492;-92
2023/07/17 02:14:47;;;;;;;;;1.33;1.33;;;;;;;;5048105;28;28483;-93
2023/07/17 02:17:14;;;;;;;;;1.67;1.67;;;;;;;;5046958;28;28286;-93
2023/07/17 02:19:59;;;;;;;;;1.33;1.33;;;;;;;;5042936;28;28332;-92
2023/07/17 02:22:35;;;;;;;;;;;;;;;;;;;;;
2023/07/17 02:25:07;;;;;;;;;2.33;2.33;;;;;;;;5049143;28;55970;-92
2023/07/17 02:27:37;;;;;;;;;1.00;1.00;;;;;;;;5049578;28;28441;-93
2023/07/17 02:30:07;;;;;;;;;1.33;1.33;;;;;;;;5055465;28;28528;-92
2023/07/17 02:32:33;;;;;;;;;1.67;1.67;;;;;;;;5057912;28;29875;-92
2023/07/17 02:35:03;;;;;;;;;1.00;1.00;;;;;;;;5041098;28;28829;-92
2023/07/17 02:37:40;;;;;;;;;2.33;2.33;;;;;;;;5055343;28;28462;-92
2023/07/17 02:40:10;;;;;;;;;3.00;3.00;;;;;;;;5054691;28;28520;-92
2023/07/17 02:42:38;;;;;;;;;2.67;2.67;;;;;;;;5055234;28;30915;-93
2023/07/17 02:45:27;;;;;;;;;2.33;2.33;;;;;;;;5054525;28;29354;-92
2023/07/17 02:47:53;;;;;;;;;2.00;1.67;;;;;;;;5053162;28;28431;-93
2023/07/17 02:50:42;;;;;;;;;2.33;2.33;;;;;;;;5054818;28;28905;-93
2023/07/17 02:53:09;;;;;;;;;3.67;3.67;;;;;;;;5056203;28;29158;-93
2023/07/17 02:55:41;;;;;;;;;3.33;3.33;;;;;;;;5053526;28;28903;-92
2023/07/17 02:58:07;;;;;;;;;3.67;3.67;;;;;;;;5054617;28;28552;-93
2023/07/17 03:00:44;;;;;;;;;;;;;;;;;;;;;
2023/07/17 03:03:14;;;;;;;;;3.33;3.33;;;;;;;;5052493;28;58537;-92
2023/07/17 03:05:42;;;;;;;;;4.00;4.00;;;;;;;;5076736;28;28268;-92
2023/07/17 03:08:27;;;;;;;;;4.00;2.00;;;;;;;;5075792;28;28617;-92
2023/07/17 03:10:54;;;;;;;;;4.33;3.00;;;;;;;;5058591;28;28545;-92
2023/07/17 03:13:21;;;;;;;;;3.67;3.67;;;;;;;;5061911;28;29730;-93
2023/07/17 03:15:50;;;;;;;;;4.00;4.00;;;;;;;;5061092;28;29586;-92
2023/07/17 03:18:29;;;;;;;;;0.00;0.00;;;;;;;;5061207;28;28359;-92
2023/07/17 03:21:03;;;;;;;;;7.00;6.00;;;;;;;;5054601;28;28495;-92
2023/07/17 03:23:38;;;;;;;;;5.67;5.67;;;;;;;;5061539;28;29896;-93
2023/07/17 03:26:06;;;;;;;;;5.67;5.67;;;;;;;;5079401;28;28499;-92
2023/07/17 03:28:34;;;;;;;;;5.00;5.00;;;;;;;;5078772;28;28508;-92
2023/07/17 03:31:02;;;;;;;;;6.00;6.00;;;;;;;;5059018;28;28507;-92
2023/07/17 03:33:30;;;;;;;;;4.33;4.33;;;;;;;;5061766;28;30661;-93
2023/07/17 03:36:03;;;;;;;;;4.67;4.00;;;;;;;;5061201;28;28808;-92
2023/07/17 03:38:40;;;;;;;;;;;;;;;;;;;;;
2023/07/17 03:41:06;;;;;;;;;5.00;5.00;;;;;;;;5076776;28;51986;-92
2023/07/17 03:43:34;;;;;;;;;7.00;5.33;;;;;;;;5077745;28;28483;-92
2023/07/17 03:46:09;;;;;;;;;5.67;5.67;;;;;;;;5077283;28;28350;-92
2023/07/17 03:48:34;;;;;;;;;6.00;6.00;;;;;;;;5060400;28;28464;-93
2023/07/17 03:50:59;;;;;;;;;5.00;5.00;;;;;;;;5059839;28;28306;-92
2023/07/17 03:53:32;;;;;;;;;5.33;4.67;;;;;;;;5078160;28;29445;-92
2023/07/17 03:56:04;;;;;;;;;3.67;3.67;;;;;;;;5079570;28;28307;-93
2023/07/17 03:58:42;;;;;;;;;;;;;;;;;;;;;
2023/07/17 04:01:32;;;;;;;;;9.33;7.00;;;;;;;;5076979;28;52657;-92
2023/07/17 04:04:00;;;;;;;;;6.00;5.00;;;;;;;;5066194;28;28459;-93
2023/07/17 04:06:27;;;;;;;;;7.00;6.00;;;;;;;;5060305;28;28538;-93
2023/07/17 04:08:55;;;;;;;;;6.33;6.33;;;;;;;;5078641;28;28351;-92
2023/07/17 04:11:23;;;;;;;;;5.00;4.33;;;;;;;;5061259;28;28271;-92
2023/07/17 04:13:50;;;;;;;;;6.00;6.00;;;;;;;;5060322;28;28650;-93
2023/07/17 04:16:20;;;;;;;;;6.67;5.00;;;;;;;;5057114;28;28688;-93
2023/07/17 04:18:45;;;;;;;;;5.33;5.33;;;;;;;;5077348;28;28243;-92
2023/07/17 04:21:13;;;;;;;;;5.00;5.00;;;;;;;;5059895;28;28654;-93
2023/07/17 04:24:01;;;;;;;;;;;;;;;;;;;;;
2023/07/17 04:26:26;;;;;;;;;5.00;5.00;;;;;;;;5075317;28;55401;-93
2023/07/17 04:28:51;;;;;;;;;7.67;7.67;;;;;;;;5071382;28;30045;-92
2023/07/17 04:31:17;;;;;;;;;7.00;7.00;;;;;;;;5060078;28;28647;-92
2023/07/17 04:33:48;;;;;;;;;7.67;7.67;;;;;;;;5060191;28;30166;-93
2023/07/17 04:36:21;;;;;;;;;12.33;12.33;;;;;;;;5059185;28;28666;-92
2023/07/17 04:38:59;;;;;;;;;8.00;8.00;;;;;;;;5058789;28;28412;-92
2023/07/17 04:41:24;;;;;;;;;6.67;6.67;;;;;;;;5059582;28;28520;-92
2023/07/17 04:43:49;;;;;;;;;6.67;6.67;;;;;;;;5059277;28;29916;-92
2023/07/17 04:46:25;;;;;;;;;;;;;;;;;;;;;
2023/07/17 04:48:53;;;;;;;;;5.67;5.67;;;;;;;;5076944;28;56183;-93
2023/07/17 04:51:28;;;;;;;;;6.33;6.33;;;;;;;;5078798;28;28539;-92
2023/07/17 04:53:53;;;;;;;;;38.25;36.25;;;;;;;;5060187;28;30568;-92
2023/07/17 04:56:20;;;;;;;;;20.67;16.00;;;;;;;;5075262;28;28300;-93
2023/07/17 04:58:48;;;;;;;;;11.00;11.00;;;;;;;;5058503;28;28428;-92
2023/07/17 05:01:13;;;;;;;;;8.33;8.33;;;;;;;;5076336;28;28418;-92
2023/07/17 05:03:41;;;;;;;;;4.67;4.67;;;;;;;;5078122;28;28609;-93
2023/07/17 05:06:14;;;;;;;;;5.33;4.00;;;;;;;;5077698;28;28294;-92
2023/07/17 05:08:46;;;;;;;;;6.00;6.00;;;;;;;;5056365;28;28429;-93
2023/07/17 05:11:22;;;;;;;;;13.33;12.67;;;;;;;;5057767;28;28273;-92
2023/07/17 05:14:05;;;;;;;;;8.67;8.67;;;;;;;;5076951;28;28516;-92
2023/07/17 05:16:40;;;;;;;;;8.33;7.67;;;;;;;;5058556;28;28624;-92
2023/07/17 05:19:11;;;;;;;;;6.33;6.33;;;;;;;;5058017;28;28574;-93
2023/07/17 05:21:38;;;;;;;;;9.00;7.67;;;;;;;;5075118;28;28278;-92
2023/07/17 05:24:20;;;;;;;;;6.00;6.00;;;;;;;;5059515;28;30647;-92
2023/07/17 05:26:45;;;;;;;;;12.33;12.33;;;;;;;;5059448;28;28597;-92
2023/07/17 05:29:22;;;;;;;;;7.67;7.67;;;;;;;;5059021;28;28464;-92
2023/07/17 05:31:48;;;;;;;;;3.00;3.00;;;;;;;;5056835;28;28291;-92
2023/07/17 05:34:13;;;;;;;;;6.00;6.00;;;;;;;;5058268;28;28631;-93
2023/07/17 05:36:56;;;;;;;;;5.67;5.67;;;;;;;;5059277;28;28603;-93
2023/07/17 05:39:49;;;;;;;;;9.00;7.00;;;;;;;;5076122;28;28445;-93
2023/07/17 05:42:22;;;;;;;;;;;;;;;;;;;;;
2023/07/17 05:44:55;;;;;;;;;11.00;11.00;;;;;;;;5074110;28;58051;-92
2023/07/17 05:47:23;;;;;;;;;10.33;7.33;;;;;;;;5057040;28;29369;-93
2023/07/17 05:49:48;;;;;;;;;4.33;4.33;;;;;;;;5057540;28;28524;-92
2023/07/17 05:57:06;;;;;;;;;;;;;;;;;;2449943;28;199635802;-92
2023/07/17 06:03:17;;;;;;;;;3.00;3.00;;;;;;;;2;248086516;248086516;-92
2023/07/17 06:09:39;;;;;;;;;21.50;21.50;;;;;;;;174391;28;216219923;-92
2023/07/17 06:15:21;;;;;;;;;;;;;;;;;;;;;
2023/07/17 06:20:44;;;;;;;;;8.50;8.50;;;;;;;;2;180634599;180634599;-92
2023/07/17 06:37:56;;;;;;;;;6.50;6.50;;;;;;;;3;131950242;143864392;-92
2023/07/17 06:42:44;;;;;;;;;;;;;;;;;;2;216439098;216439098;-92
2023/07/17 06:45:10;;;;;;;;;9.25;9.25;;;;;;;;2490903;28;9404283;-93
2023/07/17 06:50:11;;;;;;;;;;;;;;;;;;;;;
2023/07/17 06:55:38;;;;;;;;;6.67;5.67;;;;;;;;5504703;22;29447;-91
2023/07/17 06:58:04;;;;;;;;;4.00;4.00;;;;;;;;5034332;28;29159;-93
2023/07/17 07:00:29;;;;;;;;;5.33;5.33;;;;;;;;5034352;28;28829;-93
2023/07/17 07:02:54;;;;;;;;;4.00;4.00;;;;;;;;5035489;28;28850;-93
2023/07/17 07:05:19;;;;;;;;;3.67;3.67;;;;;;;;5023406;28;29123;-94
2023/07/17 07:07:45;;;;;;;;;3.00;3.00;;;;;;;;5034121;28;28235;-94
2023/07/17 07:10:10;;;;;;;;;4.00;4.00;;;;;;;;5011932;28;29669;-93
2023/07/17 07:12:35;;;;;;;;;5.00;5.00;;;;;;;;5027079;28;28464;-92
2023/07/17 07:41:19;;;;;;;;;3.33;3.33;;;;;;;;6022726;23;28574;-90
2023/07/17 07:46:47;;;;;;;;;7.67;5.67;;;;;;;;5034164;28;28332;-93
2023/07/17 07:49:12;;;;;;;;;4.67;4.67;;;;;;;;5016420;28;28626;-92
2023/07/17 07:51:37;;;;;;;;;9.00;7.67;;;;;;;;5027560;28;28371;-93
2023/07/17 07:54:03;;;;;;;;;4.00;4.00;;;;;;;;5023037;28;28509;-94
2023/07/17 07:56:28;;;;;;;;;5.00;5.00;;;;;;;;5029580;28;28747;-93
2023/07/17 07:58:54;;;;;;;;;5.00;5.00;;;;;;;;5036458;28;28414;-93
2023/07/17 08:01:19;;;;;;;;;6.67;6.67;;;;;;;;5017478;28;29571;-92
2023/07/17 08:03:44;;;;;;;;;8.67;7.00;;;;;;;;5037815;28;28286;-92
2023/07/17 08:06:09;;;;;;;;;5.00;5.00;;;;;;;;5038758;28;28291;-93
2023/07/17 08:08:35;;;;;;;;;3.00;3.00;;;;;;;;5038480;28;28327;-93
2023/07/17 08:11:01;;;;;;;;;4.67;4.67;;;;;;;;5038973;28;28297;-92
2023/07/17 08:13:27;;;;;;;;;5.33;5.33;;;;;;;;5020745;28;28656;-92
2023/07/17 08:15:52;;;;;;;;;5.33;5.33;;;;;;;;5020071;28;28530;-93
2023/07/17 08:18:17;;;;;;;;;7.33;7.33;;;;;;;;5019037;28;28522;-93
2023/07/17 08:20:43;;;;;;;;;6.33;6.33;;;;;;;;5020351;28;29585;-92
2023/07/17 08:23:09;;;;;;;;;6.00;5.67;;;;;;;;5037159;28;28408;-93
2023/07/17 08:25:34;;;;;;;;;6.33;5.00;;;;;;;;5035897;28;28605;-93
2023/07/17 08:28:00;;;;;;;;;6.33;6.33;;;;;;;;5036593;28;28386;-93
2023/07/17 08:30:25;;;;;;;;;2.33;2.33;;;;;;;;5019197;28;29876;-92
2023/07/17 08:32:50;;;;;;;;;5.67;5.67;;;;;;;;5038317;28;28548;-93
2023/07/17 08:35:15;;;;;;;;;4.33;4.33;;;;;;;;5018708;28;28542;-93
2023/07/17 08:37:41;;;;;;;;;5.00;2.33;;;;;;;;5020130;28;28509;-93
2023/07/17 08:40:06;;;;;;;;;4.67;4.67;;;;;;;;5017991;28;29906;-92
2023/07/17 08:42:33;;;;;;;;;4.33;4.33;;;;;;;;5037684;28;28339;-93
2023/07/17 08:44:58;;;;;;;;;7.00;6.00;;;;;;;;5019791;28;28320;-93
2023/07/17 08:47:24;;;;;;;;;2.00;2.00;;;;;;;;5019580;28;28561;-93
2023/07/17 08:49:50;;;;;;;;;4.67;4.67;;;;;;;;5019043;28;29915;-93
2023/07/17 08:52:17;;;;;;;;;4.67;4.67;;;;;;;;5036959;28;28265;-93
2023/07/17 08:54:42;;;;;;;;;3.00;3.00;;;;;;;;5018046;28;28632;-93
2023/07/17 08:57:08;;;;;;;;;3.33;3.33;;;;;;;;5019083;28;28419;-93
2023/07/17 08:59:34;;;;;;;;;3.00;3.00;;;;;;;;5037050;28;28578;-93
2023/07/17 09:02:03;;;;;;;;;3.00;3.00;;;;;;;;5036353;28;28390;-93
2023/07/17 09:04:32;;;;;;;;;3.00;3.00;;;;;;;;5018607;28;28399;-93
2023/07/17 09:06:58;;;;;;;;;3.67;3.67;;;;;;;;5038662;28;28519;-93
2023/07/17 09:09:23;;;;;;;;;1.00;1.00;;;;;;;;5035913;28;28509;-94
2023/07/17 09:12:05;;;;;;;;;2.00;2.00;;;;;;;;5037222;28;28610;-93
2023/07/17 09:14:30;;;;;;;;;2.33;2.33;;;;;;;;5019343;28;28285;-93
2023/07/17 09:17:03;;;;;;;;;2.33;1.67;;;;;;;;5036770;28;28231;-93
2023/07/17 09:19:30;;;;;;;;;2.00;1.00;;;;;;;;5013094;28;29759;-94
2023/07/17 09:21:57;;;;;;;;;2.00;2.00;;;;;;;;5033703;28;28228;-94
2023/07/17 09:24:23;;;;;;;;;1.67;1.67;;;;;;;;5031703;28;28679;-95
2023/07/17 09:26:56;;;;;;;;;2.00;2.00;;;;;;;;5017475;28;28360;-94
2023/07/17 09:29:25;;;;;;;;;1.33;1.33;;;;;;;;5016905;28;30090;-94
2023/07/17 09:31:57;;;;;;;;;1.00;1.00;;;;;;;;5017213;28;28557;-94
2023/07/17 09:34:23;;;;;;;;;1.00;1.00;;;;;;;;5017987;28;28556;-94
2023/07/17 09:36:51;;;;;;;;;1.33;1.33;;;;;;;;5035898;28;28519;-94
2023/07/17 09:39:24;;;;;;;;;2.00;2.00;;;;;;;;5035325;28;28549;-93
2023/07/17 09:44:40;;;;;;;;;1.00;1.00;;;;;;;;5036399;28;28311;-93
2023/07/17 09:47:05;;;;;;;;;2.67;2.67;;;;;;;;5036607;28;28697;-93
2023/07/17 09:49:31;;;;;;;;;0.00;0.00;;;;;;;;5017703;28;29749;-92
2023/07/17 09:51:57;;;;;;;;;2.00;2.00;;;;;;;;5037721;28;28315;-93
2023/07/17 09:54:22;;;;;;;;;2.67;2.67;;;;;;;;5018064;28;28477;-93
2023/07/17 09:56:48;;;;;;;;;1.00;1.00;;;;;;;;5036918;28;28603;-93
2023/07/17 09:59:24;;;;;;;;;2.00;2.00;;;;;;;;5017834;28;30486;-92
2023/07/17 10:01:59;;;;;;;;;2.00;2.00;;;;;;;;5033159;28;28496;-93
2023/07/17 10:04:31;;;;;;;;;1.00;1.00;;;;;;;;5036742;28;28571;-93
2023/07/17 10:06:59;;;;;;;;;3.00;3.00;;;;;;;;5036307;28;28240;-93
2023/07/17 10:09:25;;;;;;;;;2.33;2.33;;;;;;;;5036555;28;28465;-93
2023/07/17 10:11:56;;;;;;;;;1.00;1.00;;;;;;;;5018552;28;29799;-93
2023/07/17 10:14:24;;;;;;;;;2.67;2.67;;;;;;;;5037537;28;28302;-94
2023/07/17 10:16:51;;;;;;;;;1.33;1.00;;;;;;;;5016944;28;28504;-93
2023/07/17 10:19:18;;;;;;;;;1.00;1.00;;;;;;;;5030860;28;28381;-94
2023/07/17 10:21:54;;;;;;;;;0.67;0.67;;;;;;;;5036889;28;28357;-94
2023/07/17 10:24:22;;;;;;;;;1.00;1.00;;;;;;;;5037111;28;28401;-94
2023/07/17 10:26:48;;;;;;;;;2.00;2.00;;;;;;;;5036657;28;28331;-94
2023/07/17 10:29:16;;;;;;;;;1.00;1.00;;;;;;;;5036779;28;29438;-93
2023/07/17 10:31:48;;;;;;;;;2.00;2.00;;;;;;;;5036954;28;28624;-94
2023/07/17 10:34:15;;;;;;;;;2.00;2.00;;;;;;;;5019162;28;28568;-93
2023/07/17 10:36:48;;;;;;;;;2.00;2.00;;;;;;;;5035620;28;28555;-93
2023/07/17 10:39:39;;;;;;;;;2.00;2.00;;;;;;;;5034631;28;30719;-93
2023/07/17 10:42:15;;;;;;;;;;;;;;;;;;;;;
2023/07/17 10:44:40;;;;;;;;;2.00;2.00;;;;;;;;5035810;28;53065;-94
2023/07/17 10:47:08;;;;;;;;;2.00;2.00;;;;;;;;5037188;28;28431;-94
2023/07/17 10:49:33;;;;;;;;;1.00;1.00;;;;;;;;5018290;28;29879;-93
2023/07/17 10:52:01;;;;;;;;;2.00;2.00;;;;;;;;5017990;28;28769;-93
2023/07/17 10:54:29;;;;;;;;;1.00;1.00;;;;;;;;5018915;28;28466;-93
2023/07/17 10:56:58;;;;;;;;;1.00;1.00;;;;;;;;5018879;28;28271;-93
2023/07/17 10:59:34;;;;;;;;;2.00;2.00;;;;;;;;5035913;28;28465;-92
2023/07/17 11:02:03;;;;;;;;;1.00;1.00;;;;;;;;5033990;28;28386;-95
2023/07/17 11:04:28;;;;;;;;;1.33;1.33;;;;;;;;5036777;28;28243;-93
2023/07/17 11:07:12;;;;;;;;;1.00;1.00;;;;;;;;5018262;28;28642;-93
2023/07/17 11:09:45;;;;;;;;;2.67;2.00;;;;;;;;5017660;28;30803;-94
2023/07/17 11:12:10;;;;;;;;;1.00;1.00;;;;;;;;5017893;28;28869;-94
2023/07/17 11:14:38;;;;;;;;;0.00;0.00;;;;;;;;5018581;28;28407;-93
2023/07/17 11:17:19;;;;;;;;;0.00;0.00;;;;;;;;5014724;28;28532;-95
2023/07/17 11:19:45;;;;;;;;;0.00;0.00;;;;;;;;5015962;28;30450;-93
2023/07/17 11:22:11;;;;;;;;;1.00;1.00;;;;;;;;5008469;28;28732;-95
2023/07/17 11:24:37;;;;;;;;;1.00;1.00;;;;;;;;5033652;28;28470;-95
2023/07/17 11:27:02;;;;;;;;;1.00;1.00;;;;;;;;5008712;28;28666;-95
2023/07/17 11:29:28;;;;;;;;;2.00;2.00;;;;;;;;5031218;28;28434;-95
2023/07/17 11:45:53;;;;;;;;;1.00;1.00;;;;;;;;5624996;23;28940;-95
2023/07/17 11:48:18;;;;;;;;;0.00;0.00;;;;;;;;5038660;28;28796;-93
2023/07/17 11:50:43;;;;;;;;;1.67;1.67;;;;;;;;5012745;28;28583;-93
2023/07/17 11:53:12;;;;;;;;;1.00;1.00;;;;;;;;5048989;28;28611;-94
2023/07/17 11:55:39;;;;;;;;;2.00;2.00;;;;;;;;5021794;28;28497;-93
2023/07/17 11:58:13;;;;;;;;;1.00;1.00;;;;;;;;5044669;28;28243;-93
2023/07/17 12:00:42;;;;;;;;;2.00;2.00;;;;;;;;5019736;28;28568;-94
2023/07/17 12:03:07;;;;;;;;;3.00;3.00;;;;;;;;5020489;28;28863;-94
2023/07/17 12:05:33;;;;;;;;;2.00;2.00;;;;;;;;5029924;28;28398;-94
2023/07/17 12:07:58;;;;;;;;;1.00;1.00;;;;;;;;5036738;28;28520;-95
2023/07/17 12:10:25;;;;;;;;;1.00;1.00;;;;;;;;5036837;28;29347;-93
2023/07/17 12:12:50;;;;;;;;;0.67;0.67;;;;;;;;5037543;28;28337;-94
2023/07/17 12:15:17;;;;;;;;;2.00;2.00;;;;;;;;5018493;28;28642;-94
2023/07/17 12:17:42;;;;;;;;;2.00;2.00;;;;;;;;5035829;28;28315;-95
2023/07/17 12:20:07;;;;;;;;;1.00;1.00;;;;;;;;5019900;28;29794;-94
2023/07/17 12:22:33;;;;;;;;;2.00;2.00;;;;;;;;5038246;28;28220;-94
2023/07/17 12:24:58;;;;;;;;;2.00;2.00;;;;;;;;5028742;28;28322;-94
2023/07/17 12:27:23;;;;;;;;;1.67;1.67;;;;;;;;5037725;28;28540;-93
2023/07/17 12:29:49;;;;;;;;;2.00;2.00;;;;;;;;5037804;28;28479;-94
2023/07/17 12:32:17;;;;;;;;;1.00;1.00;;;;;;;;5036605;28;28548;-94
2023/07/17 12:34:42;;;;;;;;;1.00;1.00;;;;;;;;5036949;28;28450;-94
2023/07/17 12:37:07;;;;;;;;;1.67;1.67;;;;;;;;5035273;28;28604;-94
2023/07/17 12:39:33;;;;;;;;;1.00;1.00;;;;;;;;5017430;28;29698;-93
2023/07/17 12:41:58;;;;;;;;;1.00;1.00;;;;;;;;5036609;28;28445;-95
2023/07/17 12:44:23;;;;;;;;;1.00;1.00;;;;;;;;5028726;28;28356;-92
2023/07/17 12:46:48;;;;;;;;;1.00;1.00;;;;;;;;5038551;28;28419;-93
2023/07/17 12:49:14;;;;;;;;;1.00;1.00;;;;;;;;5019584;28;29635;-92
2023/07/17 12:51:39;;;;;;;;;2.00;2.00;;;;;;;;5020995;28;28418;-93
2023/07/17 12:54:04;;;;;;;;;0.00;0.00;;;;;;;;5038195;28;28575;-93
2023/07/17 12:56:29;;;;;;;;;1.00;1.00;;;;;;;;5022868;28;28453;-93
2023/07/17 12:58:55;;;;;;;;;1.00;1.00;;;;;;;;5028614;28;28404;-93
2023/07/17 13:01:20;;;;;;;;;1.00;1.00;;;;;;;;5038229;28;28353;-94
2023/07/17 13:03:45;;;;;;;;;2.00;2.00;;;;;;;;5048873;28;28283;-94
2023/07/17 13:06:10;;;;;;;;;2.67;2.67;;;;;;;;5040633;28;28267;-94
2023/07/17 13:08:36;;;;;;;;;2.00;2.00;;;;;;;;5055950;28;28316;-93
2023/07/17 13:11:01;;;;;;;;;1.00;1.00;;;;;;;;5038974;28;28220;-94
2023/07/17 13:13:26;;;;;;;;;1.00;1.00;;;;;;;;5020744;28;28548;-94
2023/07/17 13:15:52;;;;;;;;;4.67;3.33;;;;;;;;5036590;28;28500;-93
2023/07/17 13:18:17;;;;;;;;;0.00;0.00;;;;;;;;5025410;28;29055;-93
2023/07/17 13:20:42;;;;;;;;;0.67;0.67;;;;;;;;5045700;28;28339;-93
2023/07/17 13:23:08;;;;;;;;;1.33;1.33;;;;;;;;5040355;28;28326;-94
2023/07/17 13:25:33;;;;;;;;;1.67;1.67;;;;;;;;5040370;28;28268;-94
2023/07/17 13:27:58;;;;;;;;;1.00;1.00;;;;;;;;5025576;28;28331;-93
2023/07/17 13:30:23;;;;;;;;;1.00;1.00;;;;;;;;5050957;28;28403;-93
2023/07/17 13:32:49;;;;;;;;;1.00;1.00;;;;;;;;5033490;28;28292;-93
2023/07/17 13:35:14;;;;;;;;;1.00;1.00;;;;;;;;5040282;28;28266;-93
2023/07/17 13:37:40;;;;;;;;;0.00;0.00;;;;;;;;5045799;28;28981;-93
2023/07/17 13:40:05;;;;;;;;;1.00;1.00;;;;;;;;5036605;28;28251;-93
2023/07/17 13:42:30;;;;;;;;;1.00;1.00;;;;;;;;5038169;28;28513;-93
2023/07/17 13:44:59;;;;;;;;;1.33;1.33;;;;;;;;5043335;28;28319;-93
2023/07/17 13:47:25;;;;;;;;;0.00;0.00;;;;;;;;5030195;28;29702;-92
2023/07/17 13:49:50;;;;;;;;;1.00;1.00;;;;;;;;5027179;28;28406;-93
2023/07/17 13:52:15;;;;;;;;;1.00;1.00;;;;;;;;5029507;28;28339;-93
2023/07/17 13:54:40;;;;;;;;;1.00;1.00;;;;;;;;5026598;28;28339;-93
2023/07/17 13:57:08;;;;;;;;;1.33;1.33;;;;;;;;5051648;28;28332;-93
2023/07/17 13:59:33;;;;;;;;;1.00;1.00;;;;;;;;5019349;28;28663;-93
2023/07/17 14:02:02;;;;;;;;;1.00;1.00;;;;;;;;5029329;28;28295;-93
2023/07/17 14:04:29;;;;;;;;;0.00;0.00;;;;;;;;5010025;28;28494;-93
2023/07/17 14:07:00;;;;;;;;;0.33;0.33;;;;;;;;5025127;28;29847;-93
2023/07/17 14:09:25;;;;;;;;;1.00;1.00;;;;;;;;5023457;28;28684;-93
2023/07/17 14:11:50;;;;;;;;;2.00;2.00;;;;;;;;5019236;28;28576;-94
2023/07/17 14:14:16;;;;;;;;;1.00;1.00;;;;;;;;5036220;28;28476;-93
2023/07/17 14:16:46;;;;;;;;;0.67;0.67;;;;;;;;5037258;28;28448;-93
2023/07/17 14:19:11;;;;;;;;;0.00;0.00;;;;;;;;5032370;28;28311;-93
2023/07/17 14:21:37;;;;;;;;;0.00;0.00;;;;;;;;5019472;28;28346;-93
2023/07/17 14:24:03;;;;;;;;;0.00;0.00;;;;;;;;5019328;28;28324;-93
2023/07/17 14:26:31;;;;;;;;;0.00;0.00;;;;;;;;5019586;28;28689;-93
2023/07/17 14:28:58;;;;;;;;;0.33;0.33;;;;;;;;5018574;28;29774;-94
2023/07/17 14:31:25;;;;;;;;;0.00;0.00;;;;;;;;5018680;28;28399;-93
2023/07/17 14:33:50;;;;;;;;;0.00;0.00;;;;;;;;5019273;28;28482;-93
2023/07/17 14:36:15;;;;;;;;;0.00;0.00;;;;;;;;5037387;28;28417;-93
2023/07/17 14:38:50;;;;;;;;;0.00;0.00;;;;;;;;5036982;28;28311;-93
2023/07/17 14:41:18;;;;;;;;;0.00;0.00;;;;;;;;5016388;28;28547;-93
2023/07/17 14:43:46;;;;;;;;;0.00;0.00;;;;;;;;5036532;28;28336;-93
2023/07/17 14:46:11;;;;;;;;;0.00;0.00;;;;;;;;5018782;28;29802;-94
2023/07/17 14:48:36;;;;;;;;;0.00;0.00;;;;;;;;5019021;28;28904;-93
2023/07/17 14:51:02;;;;;;;;;0.00;0.00;;;;;;;;5026796;28;28482;-93
2023/07/17 14:53:33;;;;;;;;;0.00;0.00;;;;;;;;5041156;28;28479;-93
2023/07/17 14:56:01;;;;;;;;;1.00;1.00;;;;;;;;5027766;28;29964;-93
2023/07/17 14:58:26;;;;;;;;;0.67;0.67;;;;;;;;5019221;28;28399;-93
2023/07/17 15:00:54;;;;;;;;;0.00;0.00;;;;;;;;5048386;28;28783;-92
2023/07/17 15:03:19;;;;;;;;;0.00;0.00;;;;;;;;5032867;28;28760;-92
2023/07/17 15:05:47;;;;;;;;;0.00;0.00;;;;;;;;5049416;28;28823;-93
2023/07/17 15:08:15;;;;;;;;;0.00;0.00;;;;;;;;5042218;28;28561;-93
2023/07/17 15:10:40;;;;;;;;;1.00;1.00;;;;;;;;5023330;28;28492;-93
2023/07/17 15:13:05;;;;;;;;;0.00;0.00;;;;;;;;5039952;28;28306;-93
2023/07/17 15:15:30;;;;;;;;;1.00;1.00;;;;;;;;5031306;28;28629;-93
2023/07/17 15:18:16;;;;;;;;;0.00;0.00;;;;;;;;5049152;28;28492;-92
2023/07/17 15:20:41;;;;;;;;;0.00;0.00;;;;;;;;5021847;28;28478;-93
2023/07/17 15:23:06;;;;;;;;;0.00;0.00;;;;;;;;5040500;28;28503;-93
2023/07/17 15:25:32;;;;;;;;;0.00;0.00;;;;;;;;5021889;28;29638;-93
2023/07/17 15:27:58;;;;;;;;;0.00;0.00;;;;;;;;5022264;28;28316;-94
2023/07/17 15:30:23;;;;;;;;;0.00;0.00;;;;;;;;5038704;28;28579;-93
2023/07/17 15:32:48;;;;;;;;;0.00;0.00;;;;;;;;5021793;28;28465;-93
2023/07/17 15:35:16;;;;;;;;;0.00;0.00;;;;;;;;5039859;28;28470;-93
2023/07/17 15:37:41;;;;;;;;;0.00;0.00;;;;;;;;5022219;28;28829;-93
2023/07/17 15:40:07;;;;;;;;;0.00;0.00;;;;;;;;5038915;28;28301;-93
2023/07/17 15:42:32;;;;;;;;;0.00;0.00;;;;;;;;5040150;28;28294;-93
2023/07/17 15:44:57;;;;;;;;;0.00;0.00;;;;;;;;5038617;28;28561;-93
2023/07/17 15:47:22;;;;;;;;;0.00;0.00;;;;;;;;5025363;28;29598;-94
2023/07/17 15:49:50;;;;;;;;;1.00;1.00;;;;;;;;5039703;28;28216;-93
2023/07/17 15:52:15;;;;;;;;;0.00;0.00;;;;;;;;5041973;28;28327;-93
2023/07/17 15:54:40;;;;;;;;;1.00;1.00;;;;;;;;5041623;28;29916;-93
2023/07/17 15:57:06;;;;;;;;;2.00;1.00;;;;;;;;5020003;28;28569;-93
2023/07/17 15:59:31;;;;;;;;;0.00;0.00;;;;;;;;5033321;28;28558;-93
2023/07/17 16:01:57;;;;;;;;;0.00;0.00;;;;;;;;5041853;28;28610;-93
2023/07/17 16:04:22;;;;;;;;;0.00;0.00;;;;;;;;5059388;28;28405;-93
2023/07/17 16:06:47;;;;;;;;;0.00;0.00;;;;;;;;5046246;28;28494;-94
2023/07/17 16:09:15;;;;;;;;;0.00;0.00;;;;;;;;5020219;28;28481;-93
2023/07/17 16:11:40;;;;;;;;;0.00;0.00;;;;;;;;5039619;28;28323;-93
2023/07/17 16:14:06;;;;;;;;;0.00;0.00;;;;;;;;5021420;28;28650;-93
2023/07/17 16:16:32;;;;;;;;;0.00;0.00;;;;;;;;5021262;28;28411;-94
2023/07/17 16:18:57;;;;;;;;;0.00;0.00;;;;;;;;5043992;28;28284;-93
2023/07/17 16:21:22;;;;;;;;;0.00;0.00;;;;;;;;5020958;28;28684;-93
2023/07/17 16:23:48;;;;;;;;;0.00;0.00;;;;;;;;5020970;28;30140;-93
2023/07/17 16:26:13;;;;;;;;;0.00;0.00;;;;;;;;5021454;28;28519;-93
2023/07/17 16:28:41;;;;;;;;;0.00;0.00;;;;;;;;5020422;28;28337;-93
2023/07/17 16:31:06;;;;;;;;;0.00;0.00;;;;;;;;5019995;28;28570;-93
2023/07/17 16:33:31;;;;;;;;;0.00;0.00;;;;;;;;5039263;28;28374;-93
2023/07/17 16:35:57;;;;;;;;;0.00;0.00;;;;;;;;5041124;28;28371;-93
2023/07/17 16:38:22;;;;;;;;;0.00;0.00;;;;;;;;5044413;28;28336;-93
2023/07/17 16:40:48;;;;;;;;;0.00;0.00;;;;;;;;5009909;28;28620;-93